createdAt,value
2022-07-29T00:02:04.476Z,61.42
2022-07-29T00:04:32.350Z,61.38
2022-07-29T00:07:00.168Z,61.39
2022-07-29T00:09:28.375Z,61.50
2022-07-29T00:11:56.215Z,61.46
2022-07-29T00:14:24.061Z,61.28
2022-07-29T00:16:51.956Z,61.34
2022-07-29T00:19:21.313Z,61.53
2022-07-29T00:21:49.160Z,61.17
2022-07-29T00:24:17.435Z,61.42
2022-07-29T00:26:45.564Z,61.34
2022-07-29T00:32:01.613Z,61.28
2022-07-29T00:34:48.467Z,61.27
2022-07-29T00:37:16.422Z,61.29
2022-07-29T00:39:44.274Z,61.17
2022-07-29T00:42:12.234Z,61.31
2022-07-29T00:44:39.987Z,61.34
2022-07-29T00:47:07.909Z,61.28
2022-07-29T00:49:37.326Z,61.21
2022-07-29T00:52:05.189Z,61.17
2022-07-29T00:54:33.134Z,61.12
2022-07-29T00:57:01.104Z,61.24
2022-07-29T00:59:34.858Z,61.07
2022-07-29T01:02:03.233Z,61.06
2022-07-29T01:04:31.861Z,61.17
2022-07-29T01:07:01.003Z,61.17
2022-07-29T01:09:43.138Z,61.13
2022-07-29T01:12:15.167Z,61.21
2022-07-29T01:14:43.496Z,61.10
2022-07-29T01:17:13.019Z,61.05
2022-07-29T01:19:47.707Z,61.27
2022-07-29T01:22:20.965Z,61.14
2022-07-29T01:24:54.787Z,61.11
2022-07-29T01:27:30.553Z,61.15
2022-07-29T01:30:00.227Z,61.14
2022-07-29T01:32:29.499Z,61.05
2022-07-29T01:34:58.287Z,61.15
2022-07-29T01:37:26.748Z,60.94
2022-07-29T01:39:55.053Z,61.08
2022-07-29T01:42:24.816Z,60.98
2022-07-29T01:44:53.392Z,60.85
2022-07-29T01:47:23.385Z,60.91
2022-07-29T01:49:52.190Z,60.99
2022-07-29T01:52:22.078Z,61.03
2022-07-29T01:54:53.527Z,60.99
2022-07-29T01:57:21.605Z,61.02
2022-07-29T01:59:49.463Z,61.00
2022-07-29T02:02:17.613Z,61.06
2022-07-29T02:04:49.447Z,61.03
2022-07-29T02:07:18.146Z,61.06
2022-07-29T02:09:45.995Z,61.01
2022-07-29T02:12:13.831Z,60.92
2022-07-29T02:14:43.843Z,60.90
2022-07-29T02:17:11.687Z,61.04
2022-07-29T02:19:39.649Z,60.87
2022-07-29T02:22:08.937Z,61.03
2022-07-29T02:24:37.135Z,60.87
2022-07-29T02:27:05.099Z,60.86
2022-07-29T02:29:32.942Z,61.00
2022-07-29T02:32:00.910Z,60.86
2022-07-29T02:34:28.761Z,61.00
2022-07-29T02:36:56.721Z,60.97
2022-07-29T02:39:26.492Z,60.93
2022-07-29T02:41:54.574Z,61.06
2022-07-29T02:44:23.145Z,61.00
2022-07-29T02:46:52.238Z,60.98
2022-07-29T02:49:21.367Z,61.02
2022-07-29T02:51:51.586Z,60.86
2022-07-29T02:54:22.561Z,60.84
2022-07-29T02:56:53.757Z,60.87
2022-07-29T02:59:22.444Z,60.98
2022-07-29T03:01:50.442Z,60.94
2022-07-29T03:04:18.590Z,60.86
2022-07-29T03:06:46.688Z,60.86
2022-07-29T03:09:14.778Z,61.03
2022-07-29T03:11:50.351Z,60.88
2022-07-29T03:14:21.429Z,60.91
2022-07-29T03:16:49.471Z,60.88
2022-07-29T03:19:17.325Z,60.91
2022-07-29T03:21:45.164Z,60.74
2022-07-29T03:24:13.094Z,60.86
2022-07-29T03:26:41.082Z,60.86
2022-07-29T03:29:08.935Z,60.83
2022-07-29T03:31:43.735Z,60.90
2022-07-29T03:34:11.812Z,60.85
2022-07-29T03:36:39.665Z,60.88
2022-07-29T03:39:07.989Z,60.82
2022-07-29T03:41:35.840Z,60.90
2022-07-29T03:44:03.675Z,60.79
2022-07-29T03:46:31.695Z,60.78
2022-07-29T03:49:02.351Z,60.90
2022-07-29T03:51:33.255Z,60.79
2022-07-29T03:54:06.392Z,60.93
2022-07-29T03:56:43.189Z,60.85
2022-07-29T03:59:11.145Z,60.82
2022-07-29T04:01:39.068Z,60.71
2022-07-29T04:04:08.521Z,60.95
2022-07-29T04:06:42.358Z,60.86
2022-07-29T04:09:10.574Z,60.79
2022-07-29T04:12:02.688Z,60.86
2022-07-29T04:14:26.555Z,60.74
2022-07-29T04:16:54.861Z,60.88
2022-07-29T04:19:24.148Z,60.76
2022-07-29T04:21:52.469Z,60.84
2022-07-29T04:24:20.643Z,60.80
2022-07-29T04:26:48.783Z,60.74
2022-07-29T04:29:16.604Z,60.83
2022-07-29T04:31:44.894Z,60.90
2022-07-29T04:34:13.118Z,60.84
2022-07-29T04:36:42.652Z,60.80
2022-07-29T04:39:11.214Z,60.86
2022-07-29T04:41:39.306Z,60.67
2022-07-29T04:44:07.544Z,60.79
2022-07-29T04:46:37.114Z,60.82
2022-07-29T04:49:05.278Z,60.82
2022-07-29T04:51:33.196Z,60.92
2022-07-29T04:54:02.379Z,60.68
2022-07-29T04:56:30.208Z,60.69
2022-07-29T04:58:58.173Z,60.79
2022-07-29T05:01:26.095Z,60.66
2022-07-29T05:04:00.136Z,60.80
2022-07-29T05:06:28.427Z,60.74
2022-07-29T05:08:56.390Z,60.67
2022-07-29T05:11:30.250Z,60.72
2022-07-29T05:13:58.451Z,60.79
2022-07-29T05:16:26.563Z,60.63
2022-07-29T05:18:54.491Z,60.79
2022-07-29T05:21:22.456Z,60.70
2022-07-29T05:23:50.305Z,60.83
2022-07-29T05:26:18.269Z,60.67
2022-07-29T05:28:47.423Z,60.67
2022-07-29T05:31:16.031Z,60.63
2022-07-29T05:33:44.071Z,60.75
2022-07-29T05:36:12.781Z,60.78
2022-07-29T05:38:40.734Z,60.84
2022-07-29T05:41:08.806Z,60.75
2022-07-29T05:43:36.773Z,60.71
2022-07-29T05:46:05.966Z,60.87
2022-07-29T05:48:33.778Z,60.83
2022-07-29T05:51:01.744Z,60.58
2022-07-29T05:53:29.609Z,60.83
2022-07-29T05:55:57.674Z,60.71
2022-07-29T05:58:25.519Z,60.69
2022-07-29T06:00:53.864Z,60.71
2022-07-29T06:03:23.132Z,60.61
2022-07-29T06:05:50.973Z,60.74
2022-07-29T06:08:18.814Z,60.69
2022-07-29T06:10:46.781Z,60.67
2022-07-29T06:13:16.946Z,60.80
2022-07-29T06:15:45.052Z,60.67
2022-07-29T06:18:13.078Z,60.82
2022-07-29T06:20:43.440Z,60.73
2022-07-29T06:23:11.291Z,60.70
2022-07-29T06:25:40.445Z,60.80
2022-07-29T06:28:08.302Z,60.87
2022-07-29T06:30:36.215Z,60.79
2022-07-29T06:33:04.104Z,60.85
2022-07-29T06:35:38.750Z,60.82
2022-07-29T06:38:31.337Z,60.73
2022-07-29T06:41:05.059Z,60.71
2022-07-29T06:43:34.893Z,60.77
2022-07-29T06:46:03.076Z,60.66
2022-07-29T06:48:30.888Z,60.65
2022-07-29T06:50:58.741Z,60.74
2022-07-29T06:53:28.632Z,60.77
2022-07-29T06:55:56.587Z,60.78
2022-07-29T06:58:24.426Z,60.66
2022-07-29T07:00:58.485Z,60.92
2022-07-29T07:03:26.847Z,60.68
2022-07-29T07:05:54.926Z,60.72
2022-07-29T07:08:23.128Z,60.73
2022-07-29T07:10:52.414Z,60.70
2022-07-29T07:13:20.259Z,60.73
2022-07-29T07:15:49.434Z,60.70
2022-07-29T07:18:17.265Z,60.70
2022-07-29T07:20:45.465Z,60.88
2022-07-29T07:23:13.431Z,60.91
2022-07-29T07:25:41.285Z,60.87
2022-07-29T07:28:10.809Z,60.89
2022-07-29T07:30:38.892Z,61.03
2022-07-29T07:33:06.868Z,60.82
2022-07-29T07:35:34.697Z,60.74
2022-07-29T07:38:02.675Z,60.71
2022-07-29T07:40:30.513Z,60.74
2022-07-29T07:42:58.358Z,60.87
2022-07-29T07:45:28.035Z,60.76
2022-07-29T07:47:55.846Z,60.88
2022-07-29T07:50:23.807Z,60.89
2022-07-29T07:52:52.138Z,60.85
2022-07-29T07:55:20.108Z,60.97
2022-07-29T07:57:47.939Z,60.86
2022-07-29T08:00:16.027Z,60.96
2022-07-29T08:02:46.231Z,60.62
2022-07-29T08:05:18.006Z,60.31
2022-07-29T08:07:46.990Z,60.39
2022-07-29T08:10:15.073Z,60.70
2022-07-29T08:12:43.885Z,60.81
2022-07-29T08:15:11.731Z,60.81
2022-07-29T08:17:39.570Z,60.77
2022-07-29T08:20:09.340Z,60.78
2022-07-29T08:22:37.180Z,60.86
2022-07-29T08:25:05.387Z,61.08
2022-07-29T08:27:43.420Z,60.98
2022-07-29T08:30:12.241Z,61.10
2022-07-29T08:32:56.198Z,61.16
2022-07-29T08:35:25.806Z,61.28
2022-07-29T08:37:53.771Z,61.14
2022-07-29T08:40:31.965Z,61.24
2022-07-29T08:43:00.772Z,61.33
2022-07-29T08:45:28.749Z,61.24
2022-07-29T08:47:56.786Z,61.42
2022-07-29T08:50:26.073Z,61.23
2022-07-29T08:52:59.401Z,61.37
2022-07-29T08:55:27.646Z,61.35
2022-07-29T08:57:57.372Z,61.32
2022-07-29T09:00:25.617Z,61.47
2022-07-29T09:02:53.693Z,61.37
2022-07-29T09:05:21.538Z,61.43
2022-07-29T09:07:51.060Z,61.30
2022-07-29T09:10:19.130Z,61.36
2022-07-29T09:12:46.990Z,61.39
2022-07-29T09:15:14.952Z,61.54
2022-07-29T09:17:43.808Z,61.62
2022-07-29T09:20:12.093Z,61.63
2022-07-29T09:22:42.004Z,61.45
2022-07-29T09:25:13.053Z,61.34
2022-07-29T09:27:41.019Z,61.45
2022-07-29T09:30:11.513Z,61.50
2022-07-29T09:32:54.226Z,61.50
2022-07-29T09:35:22.435Z,61.59
2022-07-29T09:37:50.272Z,61.63
2022-07-29T09:40:19.802Z,61.53
2022-07-29T09:42:47.773Z,61.41
2022-07-29T09:45:16.205Z,61.52
2022-07-29T09:47:46.096Z,61.49
2022-07-29T09:50:14.061Z,61.43
2022-07-29T09:52:48.750Z,61.46
2022-07-29T09:55:18.278Z,61.43
2022-07-29T09:57:49.111Z,61.47
2022-07-29T10:00:18.631Z,61.44
2022-07-29T10:02:47.082Z,61.41
2022-07-29T10:05:22.373Z,61.40
2022-07-29T10:07:53.921Z,61.40
2022-07-29T10:10:22.971Z,61.36
2022-07-29T10:12:52.749Z,61.44
2022-07-29T10:15:20.825Z,61.39
2022-07-29T10:17:49.148Z,61.47
2022-07-29T10:20:17.421Z,61.40
2022-07-29T10:22:53.917Z,61.33
2022-07-29T10:25:22.043Z,61.47
2022-07-29T10:27:50.011Z,61.26
2022-07-29T10:30:19.415Z,61.26
2022-07-29T10:33:05.258Z,61.11
2022-07-29T10:35:40.063Z,61.24
2022-07-29T10:38:16.655Z,61.12
2022-07-29T10:41:06.656Z,61.29
2022-07-29T10:43:39.127Z,61.33
2022-07-29T10:46:11.679Z,61.13
2022-07-29T10:48:46.707Z,61.30
2022-07-29T10:51:14.646Z,61.29
2022-07-29T10:53:49.369Z,61.10
2022-07-29T10:56:25.607Z,61.22
2022-07-29T10:59:08.215Z,61.13
2022-07-29T11:01:39.226Z,61.23
2022-07-29T11:04:07.231Z,61.25
2022-07-29T11:06:51.031Z,61.22
2022-07-29T11:09:20.272Z,61.36
2022-07-29T11:11:53.486Z,61.42
2022-07-29T11:14:26.383Z,61.30
2022-07-29T11:17:06.510Z,61.23
2022-07-29T11:19:34.856Z,61.16
2022-07-29T11:22:05.636Z,61.13
2022-07-29T11:24:35.120Z,61.15
2022-07-29T11:27:13.447Z,61.13
2022-07-29T11:29:43.122Z,61.01
2022-07-29T11:32:15.742Z,61.17
2022-07-29T11:34:46.407Z,61.28
2022-07-29T11:37:17.959Z,61.04
2022-07-29T11:39:47.495Z,61.37
2022-07-29T11:42:35.401Z,61.17
2022-07-29T11:45:40.317Z,61.24
2022-07-29T11:47:57.091Z,61.19
2022-07-29T11:50:30.118Z,61.17
2022-07-29T11:52:58.081Z,60.97
2022-07-29T11:55:32.585Z,61.19
2022-07-29T11:58:03.781Z,61.33
2022-07-29T12:00:33.255Z,61.30
2022-07-29T12:03:03.405Z,61.36
2022-07-29T12:05:36.281Z,61.43
2022-07-29T12:08:23.221Z,61.48
2022-07-29T12:10:51.754Z,61.56
2022-07-29T12:13:20.439Z,61.53
2022-07-29T12:15:56.019Z,61.39
2022-07-29T12:18:29.449Z,61.39
2022-07-29T12:21:03.251Z,61.51
2022-07-29T12:23:35.034Z,61.34
2022-07-29T12:26:03.303Z,61.42
2022-07-29T12:28:32.220Z,61.57
2022-07-29T12:31:00.304Z,61.51
2022-07-29T12:33:31.390Z,61.56
2022-07-29T12:36:09.426Z,61.62
2022-07-29T12:38:38.482Z,61.48
2022-07-29T12:41:06.324Z,61.55
2022-07-29T12:43:34.177Z,61.69
2022-07-29T12:46:13.466Z,61.59
2022-07-29T12:48:43.370Z,61.65
2022-07-29T12:51:12.769Z,61.56
2022-07-29T12:53:40.785Z,61.57
2022-07-29T12:56:26.611Z,61.61
2022-07-29T12:58:56.882Z,61.74
2022-07-29T13:01:24.799Z,61.69
2022-07-29T13:03:57.077Z,61.69
2022-07-29T13:06:32.295Z,61.70
2022-07-29T13:09:03.736Z,61.74
2022-07-29T13:11:32.081Z,61.59
2022-07-29T13:14:06.498Z,61.81
2022-07-29T13:16:35.124Z,61.65
2022-07-29T13:19:07.961Z,61.65
2022-07-29T13:21:36.055Z,61.77
2022-07-29T13:24:06.523Z,61.62
2022-07-29T13:26:34.375Z,61.74
2022-07-29T13:29:02.212Z,61.58
2022-07-29T13:31:30.175Z,61.37
2022-07-29T13:33:58.497Z,61.51
2022-07-29T13:36:28.030Z,61.53
2022-07-29T13:38:56.118Z,61.71
2022-07-29T13:41:23.953Z,61.69
2022-07-29T13:43:53.959Z,61.51
2022-07-29T13:46:21.826Z,61.74
2022-07-29T13:48:49.925Z,61.63
2022-07-29T13:51:18.336Z,61.71
2022-07-29T13:53:47.496Z,61.73
2022-07-29T13:56:15.458Z,61.78
2022-07-29T13:58:43.312Z,61.82
2022-07-29T14:01:11.201Z,61.89
2022-07-29T14:03:45.688Z,61.69
2022-07-29T14:06:14.405Z,61.82
2022-07-29T14:08:42.242Z,61.88
2022-07-29T14:11:11.408Z,61.81
2022-07-29T14:13:39.256Z,61.98
2022-07-29T14:16:08.065Z,61.95
2022-07-29T14:18:36.022Z,61.86
2022-07-29T14:21:03.864Z,61.91
2022-07-29T14:23:31.716Z,61.89
2022-07-29T14:25:59.677Z,61.97
2022-07-29T14:28:28.841Z,61.80
2022-07-29T14:30:56.689Z,61.87
2022-07-29T14:33:24.535Z,61.86
2022-07-29T14:35:52.507Z,61.98
2022-07-29T14:38:20.332Z,61.99
2022-07-29T14:40:50.926Z,61.92
2022-07-29T14:43:18.787Z,62.01
2022-07-29T14:45:50.775Z,61.96
2022-07-29T14:48:18.685Z,61.97
2022-07-29T14:50:46.636Z,62.01
2022-07-29T14:53:14.605Z,62.00
2022-07-29T14:55:43.044Z,62.16
2022-07-29T14:58:16.001Z,61.93
2022-07-29T15:00:44.411Z,61.85
2022-07-29T15:03:13.726Z,62.00
2022-07-29T15:05:52.784Z,61.95
2022-07-29T15:08:21.370Z,61.86
2022-07-29T15:10:49.557Z,61.75
2022-07-29T15:13:17.396Z,61.87
2022-07-29T15:15:45.492Z,61.90
2022-07-29T15:18:14.646Z,61.95
2022-07-29T15:20:53.288Z,61.97
2022-07-29T15:23:21.987Z,61.84
2022-07-29T15:25:49.943Z,62.03
2022-07-29T15:28:18.410Z,62.00
2022-07-29T15:30:46.602Z,61.86
2022-07-29T15:33:15.877Z,62.04
2022-07-29T15:35:43.720Z,62.00
2022-07-29T15:38:11.560Z,61.80
2022-07-29T15:40:40.024Z,61.84
2022-07-29T15:43:07.729Z,61.85
2022-07-29T15:45:40.398Z,61.93
2022-07-29T15:48:08.468Z,61.51
2022-07-29T15:50:37.982Z,61.76
2022-07-29T15:53:05.954Z,61.85
2022-07-29T15:55:33.793Z,61.68
2022-07-29T15:58:01.758Z,61.61
2022-07-29T16:00:29.605Z,61.70
2022-07-29T16:02:58.644Z,61.58
2022-07-29T16:05:26.737Z,61.54
2022-07-29T16:07:55.902Z,61.67
2022-07-29T16:10:23.750Z,61.64
2022-07-29T16:12:51.706Z,61.68
2022-07-29T16:15:19.574Z,61.76
2022-07-29T16:17:47.519Z,61.86
2022-07-29T16:20:15.476Z,61.90
2022-07-29T16:22:43.332Z,61.75
2022-07-29T16:25:12.615Z,61.71
2022-07-29T16:27:40.575Z,61.83
2022-07-29T16:30:09.840Z,61.71
2022-07-29T16:32:37.721Z,61.57
2022-07-29T16:35:05.906Z,61.63
2022-07-29T16:37:36.651Z,61.69
2022-07-29T16:40:05.485Z,61.59
2022-07-29T16:42:46.691Z,61.64
2022-07-29T16:45:15.170Z,61.79
2022-07-29T16:47:43.252Z,61.67
2022-07-29T16:50:11.849Z,61.70
2022-07-29T16:52:40.045Z,61.79
2022-07-29T16:55:08.582Z,61.87
2022-07-29T16:57:37.870Z,61.65
2022-07-29T17:00:06.315Z,61.51
2022-07-29T17:02:34.173Z,61.82
2022-07-29T17:05:02.742Z,61.78
2022-07-29T17:07:30.686Z,61.76
2022-07-29T17:10:03.295Z,61.78
2022-07-29T17:12:31.777Z,61.72
2022-07-29T17:15:00.947Z,61.87
2022-07-29T17:17:38.863Z,61.79
2022-07-29T17:20:17.507Z,61.82
2022-07-29T17:22:45.598Z,61.86
2022-07-29T17:25:20.716Z,61.60
2022-07-29T17:27:49.577Z,61.62
2022-07-29T17:30:18.849Z,61.75
2022-07-29T17:32:46.701Z,61.73
2022-07-29T17:35:31.829Z,61.62
2022-07-29T17:37:59.656Z,61.76
2022-07-29T17:40:27.513Z,61.77
2022-07-29T17:42:55.469Z,61.56
2022-07-29T17:45:24.761Z,61.81
2022-07-29T17:47:52.725Z,61.78
2022-07-29T17:50:20.574Z,61.71
2022-07-29T17:52:48.889Z,61.74
2022-07-29T17:55:16.732Z,61.85
2022-07-29T17:57:44.695Z,61.63
2022-07-29T18:00:13.621Z,61.77
2022-07-29T18:02:42.798Z,61.67
2022-07-29T18:05:10.645Z,61.78
2022-07-29T18:07:38.600Z,61.67
2022-07-29T18:10:06.920Z,61.74
2022-07-29T18:12:34.761Z,61.80
2022-07-29T18:15:02.610Z,61.78
2022-07-29T18:17:48.464Z,61.84
2022-07-29T18:20:19.661Z,61.87
2022-07-29T18:22:47.621Z,61.99
2022-07-29T18:25:15.586Z,62.07
2022-07-29T18:27:43.446Z,62.02
2022-07-29T18:30:11.783Z,62.05
2022-07-29T18:32:39.603Z,61.81
2022-07-29T18:35:07.682Z,62.00
2022-07-29T18:38:00.261Z,61.95
2022-07-29T18:40:25.932Z,61.88
2022-07-29T18:42:53.778Z,62.08
2022-07-29T18:45:21.748Z,62.05
2022-07-29T18:47:50.190Z,62.03
2022-07-29T18:50:19.488Z,62.04
2022-07-29T18:52:48.638Z,62.17
2022-07-29T18:55:16.482Z,62.06
2022-07-29T18:57:54.504Z,62.03
2022-07-29T19:00:24.918Z,62.28
2022-07-29T19:02:52.959Z,62.28
2022-07-29T19:05:20.953Z,62.28
2022-07-29T19:07:50.346Z,62.27
2022-07-29T19:10:18.436Z,62.24
2022-07-29T19:12:46.270Z,62.14
2022-07-29T19:15:20.093Z,62.14
2022-07-29T19:17:48.746Z,62.10
2022-07-29T19:20:16.764Z,62.14
2022-07-29T19:22:44.616Z,62.00
2022-07-29T19:25:13.793Z,62.22
2022-07-29T19:27:43.172Z,61.98
2022-07-29T19:30:11.382Z,62.16
2022-07-29T19:32:39.346Z,62.11
2022-07-29T19:35:25.673Z,62.26
2022-07-29T19:37:53.513Z,62.17
2022-07-29T19:40:23.043Z,62.09
2022-07-29T19:42:51.791Z,62.07
2022-07-29T19:45:20.049Z,62.27
2022-07-29T19:47:47.908Z,62.12
2022-07-29T19:50:15.746Z,62.21
2022-07-29T19:52:43.703Z,62.21
2022-07-29T19:55:11.553Z,62.18
2022-07-29T19:57:42.001Z,62.25
2022-07-29T20:00:11.395Z,62.22
2022-07-29T20:02:39.470Z,62.15
2022-07-29T20:05:08.036Z,62.13
2022-07-29T20:07:36.044Z,62.15
2022-07-29T20:10:03.895Z,62.07
2022-07-29T20:12:31.737Z,62.06
2022-07-29T20:15:01.145Z,62.22
2022-07-29T20:17:29.253Z,61.95
2022-07-29T20:20:00.092Z,62.07
2022-07-29T20:22:28.037Z,61.98
2022-07-29T20:24:56.146Z,61.99
2022-07-29T20:27:24.211Z,62.05
2022-07-29T20:29:52.051Z,61.85
2022-07-29T20:32:21.696Z,61.89
2022-07-29T20:34:49.544Z,62.07
2022-07-29T20:37:20.623Z,62.07
2022-07-29T20:39:48.705Z,62.09
2022-07-29T20:42:16.565Z,62.04
2022-07-29T20:44:44.395Z,62.15
2022-07-29T20:47:12.481Z,61.85
2022-07-29T20:49:41.884Z,62.00
2022-07-29T20:52:09.736Z,61.99
2022-07-29T20:54:37.696Z,61.96
2022-07-29T20:57:05.536Z,62.14
2022-07-29T20:59:33.624Z,62.20
2022-07-29T21:02:01.463Z,62.14
2022-07-29T21:04:30.743Z,62.07
2022-07-29T21:07:02.233Z,62.29
2022-07-29T21:09:30.397Z,61.99
2022-07-29T21:11:59.451Z,62.15
2022-07-29T21:14:46.851Z,61.94
2022-07-29T21:17:14.936Z,62.27
2022-07-29T21:19:42.902Z,62.06
2022-07-29T21:22:12.670Z,62.00
2022-07-29T21:24:40.625Z,62.17
2022-07-29T21:27:26.040Z,62.26
2022-07-29T21:29:54.200Z,62.24
2022-07-29T21:32:27.692Z,62.21
2022-07-29T21:34:58.300Z,62.28
2022-07-29T21:37:28.175Z,62.27
2022-07-29T21:39:56.015Z,62.15
2022-07-29T21:42:23.983Z,62.25
2022-07-29T21:44:52.303Z,62.28
2022-07-29T21:47:20.272Z,62.41
2022-07-29T21:49:48.246Z,62.42
2022-07-29T21:52:18.145Z,62.40
2022-07-29T21:54:47.411Z,62.36
2022-07-29T21:57:17.646Z,62.47
2022-07-29T21:59:45.505Z,62.48
2022-07-29T22:02:13.455Z,62.56
2022-07-29T22:04:41.462Z,62.56
2022-07-29T22:07:09.265Z,62.52
2022-07-29T22:09:37.234Z,62.50
2022-07-29T22:12:06.998Z,62.54
2022-07-29T22:14:34.960Z,62.66
2022-07-29T22:17:03.212Z,62.59
2022-07-29T22:19:31.364Z,62.56
2022-07-29T22:21:59.332Z,62.67
2022-07-29T22:24:27.178Z,62.57
2022-07-29T22:26:55.139Z,62.47
2022-07-29T22:29:25.298Z,62.48
2022-07-29T22:31:53.237Z,62.48
2022-07-29T22:34:21.192Z,62.51
2022-07-29T22:36:49.052Z,62.50
2022-07-29T22:39:17.003Z,62.53
2022-07-29T22:41:44.843Z,62.63
2022-07-29T22:44:12.693Z,62.61
2022-07-29T22:46:41.858Z,62.68
2022-07-29T22:49:09.866Z,62.47
2022-07-29T22:51:37.671Z,62.51
2022-07-29T22:54:05.513Z,62.58
2022-07-29T22:56:33.363Z,62.65
2022-07-29T22:59:01.204Z,62.52
2022-07-29T23:01:38.029Z,62.45
2022-07-29T23:04:07.760Z,62.50
2022-07-29T23:06:35.772Z,62.64
2022-07-29T23:09:03.625Z,62.65
2022-07-29T23:11:31.940Z,62.65
2022-07-29T23:13:59.801Z,62.69
2022-07-29T23:16:27.935Z,62.54
2022-07-29T23:18:55.956Z,62.60
2022-07-29T23:21:26.204Z,62.72
2022-07-29T23:23:54.047Z,62.69
2022-07-29T23:26:22.011Z,62.75
2022-07-29T23:28:49.856Z,62.81
2022-07-29T23:31:17.895Z,62.79
2022-07-29T23:33:45.804Z,62.59
2022-07-29T23:36:13.745Z,62.74
2022-07-29T23:38:43.029Z,62.73
2022-07-29T23:41:10.883Z,62.77
2022-07-29T23:43:38.726Z,62.72
2022-07-29T23:46:06.721Z,62.67
2022-07-29T23:48:34.769Z,62.62
2022-07-29T23:51:02.613Z,62.53
2022-07-29T23:53:30.460Z,62.77
2022-07-29T23:55:59.749Z,62.59
2022-07-29T23:58:27.700Z,62.76
